sensor_id;sensor_type;location;lat;lon;timestamp;P1;durP1;ratioP1;P2;durP2;ratioP2
16262;SDS011;8239;48.594;8.598;2022-10-03T00:01:25;13.03;;;4.77;;
16262;SDS011;8239;48.594;8.598;2022-10-03T00:04:09;29.43;;;6.43;;
16262;SDS011;8239;48.594;8.598;2022-10-03T00:06:46;34.17;;;5.50;;
16262;SDS011;8239;48.594;8.598;2022-10-03T00:09:26;68.70;;;7.20;;
16262;SDS011;8239;48.594;8.598;2022-10-03T00:12:03;56.00;;;6.73;;
16262;SDS011;8239;48.594;8.598;2022-10-03T00:14:43;66.03;;;7.70;;
16262;SDS011;8239;48.594;8.598;2022-10-03T00:17:26;110.90;;;8.93;;
16262;SDS011;8239;48.594;8.598;2022-10-03T00:20:04;141.60;;;10.10;;
16262;SDS011;8239;48.594;8.598;2022-10-03T00:22:42;112.77;;;9.57;;
16262;SDS011;8239;48.594;8.598;2022-10-03T00:25:19;85.20;;;8.50;;
16262;SDS011;8239;48.594;8.598;2022-10-03T00:28:03;86.53;;;8.57;;
16262;SDS011;8239;48.594;8.598;2022-10-03T00:33:37;188.00;;;10.77;;
16262;SDS011;8239;48.594;8.598;2022-10-03T00:36:16;124.20;;;9.20;;
16262;SDS011;8239;48.594;8.598;2022-10-03T00:39:02;115.50;;;7.80;;
16262;SDS011;8239;48.594;8.598;2022-10-03T00:41:52;130.53;;;9.17;;
16262;SDS011;8239;48.594;8.598;2022-10-03T00:44:40;121.70;;;8.40;;
16262;SDS011;8239;48.594;8.598;2022-10-03T00:47:48;232.67;;;11.47;;
16262;SDS011;8239;48.594;8.598;2022-10-03T00:53:39;72.93;;;8.17;;
16262;SDS011;8239;48.594;8.598;2022-10-03T00:59:16;57.87;;;7.97;;
16262;SDS011;8239;48.594;8.598;2022-10-03T01:01:54;111.13;;;10.20;;
16262;SDS011;8239;48.594;8.598;2022-10-03T01:04:40;161.30;;;10.70;;
16262;SDS011;8239;48.594;8.598;2022-10-03T01:07:23;124.67;;;9.70;;
16262;SDS011;8239;48.594;8.598;2022-10-03T01:10:08;101.70;;;9.13;;
16262;SDS011;8239;48.594;8.598;2022-10-03T01:12:54;88.23;;;8.60;;
16262;SDS011;8239;48.594;8.598;2022-10-03T01:15:36;55.50;;;6.60;;
16262;SDS011;8239;48.594;8.598;2022-10-03T01:18:15;93.37;;;9.23;;
16262;SDS011;8239;48.594;8.598;2022-10-03T01:20:53;53.70;;;7.40;;
16262;SDS011;8239;48.594;8.598;2022-10-03T01:23:32;58.57;;;7.97;;
16262;SDS011;8239;48.594;8.598;2022-10-03T01:26:20;41.67;;;7.10;;
16262;SDS011;8239;48.594;8.598;2022-10-03T01:29:03;28.67;;;6.33;;
16262;SDS011;8239;48.594;8.598;2022-10-03T01:31:53;28.70;;;6.40;;
16262;SDS011;8239;48.594;8.598;2022-10-03T01:34:25;22.20;;;5.47;;
16262;SDS011;8239;48.594;8.598;2022-10-03T01:37:03;39.83;;;5.93;;
16262;SDS011;8239;48.594;8.598;2022-10-03T01:39:36;23.20;;;5.93;;
16262;SDS011;8239;48.594;8.598;2022-10-03T01:42:09;23.43;;;5.07;;
16262;SDS011;8239;48.594;8.598;2022-10-03T01:44:57;22.97;;;4.90;;
16262;SDS011;8239;48.594;8.598;2022-10-03T01:47:38;26.20;;;6.00;;
16262;SDS011;8239;48.594;8.598;2022-10-03T01:50:17;12.93;;;4.93;;
16262;SDS011;8239;48.594;8.598;2022-10-03T01:52:51;7.93;;;4.57;;
16262;SDS011;8239;48.594;8.598;2022-10-03T01:55:36;6.43;;;4.50;;
16262;SDS011;8239;48.594;8.598;2022-10-03T01:58:07;6.10;;;4.60;;
16262;SDS011;8239;48.594;8.598;2022-10-03T02:00:41;7.30;;;4.60;;
16262;SDS011;8239;48.594;8.598;2022-10-03T02:03:16;6.40;;;4.50;;
16262;SDS011;8239;48.594;8.598;2022-10-03T02:05:50;8.27;;;4.67;;
16262;SDS011;8239;48.594;8.598;2022-10-03T02:08:25;7.73;;;4.70;;
16262;SDS011;8239;48.594;8.598;2022-10-03T02:11:00;7.97;;;4.63;;
16262;SDS011;8239;48.594;8.598;2022-10-03T02:13:30;8.27;;;5.10;;
16262;SDS011;8239;48.594;8.598;2022-10-03T02:16:12;10.17;;;5.30;;
16262;SDS011;8239;48.594;8.598;2022-10-03T02:18:49;12.87;;;5.40;;
16262;SDS011;8239;48.594;8.598;2022-10-03T02:21:21;10.47;;;5.80;;
16262;SDS011;8239;48.594;8.598;2022-10-03T02:24:01;7.37;;;5.00;;
16262;SDS011;8239;48.594;8.598;2022-10-03T02:29:59;8.90;;;5.60;;
16262;SDS011;8239;48.594;8.598;2022-10-03T02:38:42;8.67;;;5.23;;
16262;SDS011;8239;48.594;8.598;2022-10-03T02:44:44;10.13;;;5.23;;
16262;SDS011;8239;48.594;8.598;2022-10-03T02:50:40;10.80;;;5.13;;
16262;SDS011;8239;48.594;8.598;2022-10-03T02:56:40;7.90;;;5.30;;
16262;SDS011;8239;48.594;8.598;2022-10-03T02:59:37;12.83;;;6.23;;
16262;SDS011;8239;48.594;8.598;2022-10-03T03:02:52;9.70;;;5.33;;
16262;SDS011;8239;48.594;8.598;2022-10-03T03:09:07;12.63;;;6.73;;
16262;SDS011;8239;48.594;8.598;2022-10-03T03:12:00;10.13;;;5.90;;
16262;SDS011;8239;48.594;8.598;2022-10-03T03:18:10;9.57;;;5.87;;
16262;SDS011;8239;48.594;8.598;2022-10-03T03:20:53;11.93;;;6.33;;
16262;SDS011;8239;48.594;8.598;2022-10-03T03:23:38;11.47;;;5.97;;
16262;SDS011;8239;48.594;8.598;2022-10-03T03:29:24;11.97;;;5.90;;
16262;SDS011;8239;48.594;8.598;2022-10-03T03:32:03;13.33;;;6.80;;
16262;SDS011;8239;48.594;8.598;2022-10-03T03:34:39;10.50;;;6.27;;
16262;SDS011;8239;48.594;8.598;2022-10-03T03:37:16;14.77;;;6.47;;
16262;SDS011;8239;48.594;8.598;2022-10-03T03:39:54;11.03;;;5.73;;
16262;SDS011;8239;48.594;8.598;2022-10-03T03:42:36;13.37;;;6.90;;
16262;SDS011;8239;48.594;8.598;2022-10-03T03:48:10;113.77;;;8.70;;
16262;SDS011;8239;48.594;8.598;2022-10-03T03:51:10;166.67;;;10.10;;
16262;SDS011;8239;48.594;8.598;2022-10-03T03:53:50;525.07;;;19.97;;
16262;SDS011;8239;48.594;8.598;2022-10-03T03:56:40;286.63;;;14.47;;
16262;SDS011;8239;48.594;8.598;2022-10-03T03:59:22;138.77;;;10.00;;
16262;SDS011;8239;48.594;8.598;2022-10-03T04:02:10;139.57;;;10.90;;
16262;SDS011;8239;48.594;8.598;2022-10-03T04:04:55;146.33;;;12.30;;
16262;SDS011;8239;48.594;8.598;2022-10-03T04:07:38;186.77;;;12.10;;
16262;SDS011;8239;48.594;8.598;2022-10-03T04:10:16;221.07;;;12.70;;
16262;SDS011;8239;48.594;8.598;2022-10-03T04:13:17;170.53;;;11.20;;
16262;SDS011;8239;48.594;8.598;2022-10-03T04:19:17;90.17;;;7.63;;
16262;SDS011;8239;48.594;8.598;2022-10-03T04:21:58;53.70;;;6.50;;
16262;SDS011;8239;48.594;8.598;2022-10-03T04:27:52;59.33;;;7.27;;
16262;SDS011;8239;48.594;8.598;2022-10-03T04:30:43;62.13;;;6.70;;
16262;SDS011;8239;48.594;8.598;2022-10-03T04:33:22;92.90;;;8.23;;
16262;SDS011;8239;48.594;8.598;2022-10-03T04:39:05;149.43;;;9.80;;
16262;SDS011;8239;48.594;8.598;2022-10-03T04:41:44;97.13;;;8.90;;
16262;SDS011;8239;48.594;8.598;2022-10-03T04:44:26;96.67;;;8.97;;
16262;SDS011;8239;48.594;8.598;2022-10-03T04:47:15;63.13;;;7.67;;
16262;SDS011;8239;48.594;8.598;2022-10-03T04:49:48;128.97;;;9.73;;
16262;SDS011;8239;48.594;8.598;2022-10-03T04:52:24;100.37;;;8.10;;
16262;SDS011;8239;48.594;8.598;2022-10-03T04:55:04;58.57;;;7.00;;
16262;SDS011;8239;48.594;8.598;2022-10-03T04:57:46;56.40;;;8.30;;
16262;SDS011;8239;48.594;8.598;2022-10-03T05:00:22;89.20;;;9.17;;
16262;SDS011;8239;48.594;8.598;2022-10-03T05:02:56;121.20;;;8.83;;
16262;SDS011;8239;48.594;8.598;2022-10-03T05:05:43;146.77;;;10.70;;
16262;SDS011;8239;48.594;8.598;2022-10-03T05:08:18;142.63;;;11.00;;
16262;SDS011;8239;48.594;8.598;2022-10-03T05:10:57;99.37;;;10.10;;
16262;SDS011;8239;48.594;8.598;2022-10-03T05:13:36;88.57;;;9.30;;
16262;SDS011;8239;48.594;8.598;2022-10-03T05:16:17;31.70;;;6.40;;
16262;SDS011;8239;48.594;8.598;2022-10-03T05:18:54;23.20;;;6.50;;
16262;SDS011;8239;48.594;8.598;2022-10-03T05:21:30;13.43;;;5.37;;
16262;SDS011;8239;48.594;8.598;2022-10-03T05:24:04;7.97;;;4.90;;
16262;SDS011;8239;48.594;8.598;2022-10-03T05:26:42;7.17;;;4.67;;
16262;SDS011;8239;48.594;8.598;2022-10-03T05:29:21;6.63;;;4.53;;
16262;SDS011;8239;48.594;8.598;2022-10-03T05:31:57;7.53;;;4.80;;
16262;SDS011;8239;48.594;8.598;2022-10-03T05:34:47;8.67;;;5.33;;
16262;SDS011;8239;48.594;8.598;2022-10-03T05:37:32;8.57;;;5.30;;
16262;SDS011;8239;48.594;8.598;2022-10-03T05:40:12;13.80;;;5.97;;
16262;SDS011;8239;48.594;8.598;2022-10-03T05:42:48;9.23;;;6.03;;
16262;SDS011;8239;48.594;8.598;2022-10-03T05:45:31;10.40;;;6.43;;
16262;SDS011;8239;48.594;8.598;2022-10-03T05:48:14;14.20;;;7.77;;
16262;SDS011;8239;48.594;8.598;2022-10-03T05:51:03;14.73;;;7.83;;
16262;SDS011;8239;48.594;8.598;2022-10-03T05:53:51;14.80;;;8.67;;
16262;SDS011;8239;48.594;8.598;2022-10-03T05:56:46;14.87;;;8.73;;
16262;SDS011;8239;48.594;8.598;2022-10-03T05:59:39;14.33;;;9.13;;
16262;SDS011;8239;48.594;8.598;2022-10-03T06:05:26;14.33;;;9.10;;
16262;SDS011;8239;48.594;8.598;2022-10-03T06:11:08;11.27;;;6.73;;
16262;SDS011;8239;48.594;8.598;2022-10-03T06:13:52;10.60;;;7.00;;
16262;SDS011;8239;48.594;8.598;2022-10-03T06:16:38;8.87;;;5.83;;
16262;SDS011;8239;48.594;8.598;2022-10-03T06:19:14;11.17;;;6.40;;
16262;SDS011;8239;48.594;8.598;2022-10-03T06:25:23;17.83;;;8.90;;
16262;SDS011;8239;48.594;8.598;2022-10-03T06:28:23;10.27;;;7.80;;
16262;SDS011;8239;48.594;8.598;2022-10-03T06:34:48;9.40;;;6.80;;
16262;SDS011;8239;48.594;8.598;2022-10-03T06:40:48;6.23;;;5.60;;
16262;SDS011;8239;48.594;8.598;2022-10-03T06:43:44;15.80;;;10.57;;
16262;SDS011;8239;48.594;8.598;2022-10-03T06:49:55;14.17;;;10.13;;
16262;SDS011;8239;48.594;8.598;2022-10-03T06:53:11;7.47;;;5.80;;
16262;SDS011;8239;48.594;8.598;2022-10-03T06:59:08;6.97;;;5.87;;
16262;SDS011;8239;48.594;8.598;2022-10-03T07:01:55;7.00;;;6.30;;
16262;SDS011;8239;48.594;8.598;2022-10-03T07:05:04;5.83;;;5.23;;
16262;SDS011;8239;48.594;8.598;2022-10-03T07:11:18;10.50;;;3.10;;
16262;SDS011;8239;48.594;8.598;2022-10-03T07:17:18;3.00;;;2.78;;
16262;SDS011;8239;48.594;8.598;2022-10-03T07:20:00;3.30;;;2.95;;
16262;SDS011;8239;48.594;8.598;2022-10-03T07:35:06;5.03;;;4.25;;
16262;SDS011;8239;48.594;8.598;2022-10-03T07:38:32;4.32;;;3.92;;
16262;SDS011;8239;48.594;8.598;2022-10-03T07:44:26;4.32;;;3.70;;
16262;SDS011;8239;48.594;8.598;2022-10-03T07:47:40;6.10;;;5.50;;
16262;SDS011;8239;48.594;8.598;2022-10-03T07:56:39;6.40;;;5.75;;
16262;SDS011;8239;48.594;8.598;2022-10-03T07:59:37;7.18;;;6.30;;
16262;SDS011;8239;48.594;8.598;2022-10-03T08:05:48;6.85;;;6.05;;
16262;SDS011;8239;48.594;8.598;2022-10-03T08:08:38;9.05;;;6.45;;
16262;SDS011;8239;48.594;8.598;2022-10-03T08:11:32;9.50;;;6.80;;
16262;SDS011;8239;48.594;8.598;2022-10-03T08:14:16;8.07;;;6.57;;
16262;SDS011;8239;48.594;8.598;2022-10-03T08:19:58;7.70;;;6.90;;
16262;SDS011;8239;48.594;8.598;2022-10-03T08:22:48;9.65;;;7.28;;
16262;SDS011;8239;48.594;8.598;2022-10-03T08:25:28;10.63;;;8.48;;
16262;SDS011;8239;48.594;8.598;2022-10-03T08:28:15;9.57;;;8.35;;
16262;SDS011;8239;48.594;8.598;2022-10-03T08:37:01;8.38;;;7.57;;
16262;SDS011;8239;48.594;8.598;2022-10-03T08:39:46;12.80;;;8.50;;
16262;SDS011;8239;48.594;8.598;2022-10-03T08:42:47;10.10;;;8.35;;
16262;SDS011;8239;48.594;8.598;2022-10-03T08:45:39;9.87;;;7.70;;
16262;SDS011;8239;48.594;8.598;2022-10-03T08:51:36;8.95;;;7.32;;
16262;SDS011;8239;48.594;8.598;2022-10-03T09:01:28;10.38;;;8.55;;
16262;SDS011;8239;48.594;8.598;2022-10-03T09:04:20;12.00;;;9.00;;
16262;SDS011;8239;48.594;8.598;2022-10-03T09:07:32;10.70;;;8.67;;
16262;SDS011;8239;48.594;8.598;2022-10-03T09:10:36;10.40;;;8.03;;
16262;SDS011;8239;48.594;8.598;2022-10-03T09:13:26;9.40;;;7.27;;
16262;SDS011;8239;48.594;8.598;2022-10-03T09:16:30;9.07;;;7.30;;
16262;SDS011;8239;48.594;8.598;2022-10-03T09:19:15;9.67;;;7.73;;
16262;SDS011;8239;48.594;8.598;2022-10-03T09:28:16;12.77;;;9.17;;
16262;SDS011;8239;48.594;8.598;2022-10-03T09:31:09;11.73;;;8.77;;
16262;SDS011;8239;48.594;8.598;2022-10-03T09:36:54;12.80;;;8.93;;
16262;SDS011;8239;48.594;8.598;2022-10-03T09:46:00;12.93;;;8.20;;
16262;SDS011;8239;48.594;8.598;2022-10-03T09:51:55;11.13;;;7.90;;
16262;SDS011;8239;48.594;8.598;2022-10-03T09:54:42;8.73;;;7.20;;
16262;SDS011;8239;48.594;8.598;2022-10-03T09:57:44;10.67;;;7.70;;
16262;SDS011;8239;48.594;8.598;2022-10-03T10:00:25;11.87;;;8.07;;
16262;SDS011;8239;48.594;8.598;2022-10-03T10:06:19;9.60;;;7.07;;
16262;SDS011;8239;48.594;8.598;2022-10-03T10:12:20;7.90;;;7.10;;
16262;SDS011;8239;48.594;8.598;2022-10-03T10:15:39;9.03;;;7.13;;
16262;SDS011;8239;48.594;8.598;2022-10-03T10:18:39;9.77;;;7.57;;
16262;SDS011;8239;48.594;8.598;2022-10-03T10:21:43;11.37;;;7.20;;
16262;SDS011;8239;48.594;8.598;2022-10-03T10:28:01;10.30;;;6.93;;
16262;SDS011;8239;48.594;8.598;2022-10-03T10:31:02;8.80;;;6.35;;
16262;SDS011;8239;48.594;8.598;2022-10-03T10:34:04;7.38;;;6.28;;
16262;SDS011;8239;48.594;8.598;2022-10-03T10:40:15;7.38;;;6.47;;
16262;SDS011;8239;48.594;8.598;2022-10-03T10:46:21;11.15;;;6.65;;
16262;SDS011;8239;48.594;8.598;2022-10-03T11:02:02;7.78;;;4.45;;
16262;SDS011;8239;48.594;8.598;2022-10-03T11:08:14;7.90;;;4.65;;
16262;SDS011;8239;48.594;8.598;2022-10-03T11:23:44;6.22;;;3.80;;
16262;SDS011;8239;48.594;8.598;2022-10-03T11:33:11;6.63;;;3.65;;
16262;SDS011;8239;48.594;8.598;2022-10-03T11:36:18;4.57;;;3.17;;
16262;SDS011;8239;48.594;8.598;2022-10-03T11:39:09;3.95;;;3.15;;
16262;SDS011;8239;48.594;8.598;2022-10-03T11:41:45;4.60;;;3.45;;
16262;SDS011;8239;48.594;8.598;2022-10-03T11:44:25;6.88;;;3.40;;
16262;SDS011;8239;48.594;8.598;2022-10-03T11:47:01;4.15;;;3.33;;
16262;SDS011;8239;48.594;8.598;2022-10-03T11:52:47;3.78;;;2.80;;
16262;SDS011;8239;48.594;8.598;2022-10-03T11:55:28;4.85;;;3.38;;
16262;SDS011;8239;48.594;8.598;2022-10-03T11:58:02;3.40;;;3.10;;
16262;SDS011;8239;48.594;8.598;2022-10-03T12:00:40;6.07;;;3.28;;
16262;SDS011;8239;48.594;8.598;2022-10-03T12:03:15;5.68;;;3.35;;
16262;SDS011;8239;48.594;8.598;2022-10-03T12:05:52;6.78;;;3.30;;
16262;SDS011;8239;48.594;8.598;2022-10-03T12:08:46;4.30;;;2.72;;
16262;SDS011;8239;48.594;8.598;2022-10-03T12:11:28;4.75;;;2.65;;
16262;SDS011;8239;48.594;8.598;2022-10-03T12:19:39;3.72;;;2.58;;
16262;SDS011;8239;48.594;8.598;2022-10-03T12:22:20;3.53;;;2.80;;
16262;SDS011;8239;48.594;8.598;2022-10-03T12:24:56;3.63;;;2.50;;
16262;SDS011;8239;48.594;8.598;2022-10-03T12:27:35;3.90;;;2.75;;
16262;SDS011;8239;48.594;8.598;2022-10-03T12:30:11;3.60;;;2.60;;
16262;SDS011;8239;48.594;8.598;2022-10-03T12:32:42;4.43;;;2.80;;
16262;SDS011;8239;48.594;8.598;2022-10-03T12:35:19;3.47;;;2.50;;
16262;SDS011;8239;48.594;8.598;2022-10-03T12:38:00;4.88;;;2.90;;
16262;SDS011;8239;48.594;8.598;2022-10-03T12:40:38;3.97;;;2.60;;
16262;SDS011;8239;48.594;8.598;2022-10-03T12:43:12;3.08;;;2.50;;
16262;SDS011;8239;48.594;8.598;2022-10-03T12:46:01;2.90;;;2.58;;
16262;SDS011;8239;48.594;8.598;2022-10-03T12:48:39;3.38;;;2.85;;
16262;SDS011;8239;48.594;8.598;2022-10-03T12:51:17;3.85;;;2.65;;
16262;SDS011;8239;48.594;8.598;2022-10-03T12:53:54;5.22;;;2.83;;
16262;SDS011;8239;48.594;8.598;2022-10-03T12:56:32;3.17;;;2.35;;
16262;SDS011;8239;48.594;8.598;2022-10-03T12:59:11;3.13;;;2.72;;
16262;SDS011;8239;48.594;8.598;2022-10-03T13:01:49;4.13;;;2.92;;
16262;SDS011;8239;48.594;8.598;2022-10-03T13:04:36;4.15;;;2.50;;
16262;SDS011;8239;48.594;8.598;2022-10-03T13:07:20;3.65;;;2.55;;
16262;SDS011;8239;48.594;8.598;2022-10-03T13:12:47;4.45;;;2.95;;
16262;SDS011;8239;48.594;8.598;2022-10-03T13:18:30;5.40;;;3.10;;
16262;SDS011;8239;48.594;8.598;2022-10-03T13:21:10;4.75;;;3.00;;
16262;SDS011;8239;48.594;8.598;2022-10-03T13:23:44;3.13;;;2.78;;
16262;SDS011;8239;48.594;8.598;2022-10-03T13:26:19;4.18;;;2.97;;
16262;SDS011;8239;48.594;8.598;2022-10-03T13:31:53;3.35;;;3.00;;
16262;SDS011;8239;48.594;8.598;2022-10-03T13:34:33;4.05;;;3.10;;
16262;SDS011;8239;48.594;8.598;2022-10-03T13:37:13;4.63;;;2.95;;
16262;SDS011;8239;48.594;8.598;2022-10-03T13:39:46;3.08;;;2.80;;
16262;SDS011;8239;48.594;8.598;2022-10-03T13:42:17;4.50;;;2.60;;
16262;SDS011;8239;48.594;8.598;2022-10-03T13:44:59;3.58;;;2.30;;
16262;SDS011;8239;48.594;8.598;2022-10-03T13:50:22;3.97;;;2.90;;
16262;SDS011;8239;48.594;8.598;2022-10-03T13:52:56;2.70;;;2.45;;
16262;SDS011;8239;48.594;8.598;2022-10-03T13:55:31;3.08;;;2.80;;
16262;SDS011;8239;48.594;8.598;2022-10-03T14:01:08;3.47;;;3.03;;
16262;SDS011;8239;48.594;8.598;2022-10-03T14:03:52;3.42;;;3.10;;
16262;SDS011;8239;48.594;8.598;2022-10-03T14:06:42;3.25;;;2.90;;
16262;SDS011;8239;48.594;8.598;2022-10-03T14:12:06;3.08;;;2.78;;
16262;SDS011;8239;48.594;8.598;2022-10-03T14:14:59;3.97;;;3.00;;
16262;SDS011;8239;48.594;8.598;2022-10-03T14:17:40;3.45;;;2.72;;
16262;SDS011;8239;48.594;8.598;2022-10-03T14:20:19;3.63;;;3.00;;
16262;SDS011;8239;48.594;8.598;2022-10-03T14:22:55;2.85;;;2.50;;
16262;SDS011;8239;48.594;8.598;2022-10-03T14:25:41;4.85;;;2.80;;
16262;SDS011;8239;48.594;8.598;2022-10-03T14:28:15;3.00;;;2.72;;
16262;SDS011;8239;48.594;8.598;2022-10-03T14:30:48;2.83;;;2.60;;
16262;SDS011;8239;48.594;8.598;2022-10-03T14:33:32;3.20;;;2.53;;
16262;SDS011;8239;48.594;8.598;2022-10-03T14:36:10;4.43;;;2.83;;
16262;SDS011;8239;48.594;8.598;2022-10-03T14:38:52;4.00;;;2.80;;
16262;SDS011;8239;48.594;8.598;2022-10-03T14:44:16;4.60;;;2.67;;
16262;SDS011;8239;48.594;8.598;2022-10-03T14:46:49;2.85;;;2.30;;
16262;SDS011;8239;48.594;8.598;2022-10-03T14:49:22;3.92;;;2.38;;
16262;SDS011;8239;48.594;8.598;2022-10-03T14:51:54;4.13;;;2.50;;
16262;SDS011;8239;48.594;8.598;2022-10-03T14:54:26;29.58;;;20.60;;
16262;SDS011;8239;48.594;8.598;2022-10-03T14:57:00;3.90;;;3.33;;
16262;SDS011;8239;48.594;8.598;2022-10-03T14:59:43;5.15;;;2.65;;
16262;SDS011;8239;48.594;8.598;2022-10-03T15:02:24;4.32;;;2.63;;
16262;SDS011;8239;48.594;8.598;2022-10-03T15:04:56;3.92;;;2.70;;
16262;SDS011;8239;48.594;8.598;2022-10-03T15:07:33;3.30;;;2.92;;
16262;SDS011;8239;48.594;8.598;2022-10-03T15:10:04;3.90;;;2.60;;
16262;SDS011;8239;48.594;8.598;2022-10-03T15:12:34;4.30;;;3.60;;
16262;SDS011;8239;48.594;8.598;2022-10-03T15:15:05;3.55;;;3.05;;
16262;SDS011;8239;48.594;8.598;2022-10-03T15:17:42;3.88;;;3.10;;
16262;SDS011;8239;48.594;8.598;2022-10-03T15:20:13;3.47;;;2.67;;
16262;SDS011;8239;48.594;8.598;2022-10-03T15:22:46;3.17;;;2.88;;
16262;SDS011;8239;48.594;8.598;2022-10-03T15:25:18;3.72;;;2.70;;
16262;SDS011;8239;48.594;8.598;2022-10-03T15:27:49;3.25;;;2.70;;
16262;SDS011;8239;48.594;8.598;2022-10-03T15:30:20;2.83;;;2.60;;
16262;SDS011;8239;48.594;8.598;2022-10-03T15:32:49;2.80;;;2.58;;
16262;SDS011;8239;48.594;8.598;2022-10-03T15:35:22;2.63;;;2.42;;
16262;SDS011;8239;48.594;8.598;2022-10-03T15:37:52;3.60;;;2.50;;
16262;SDS011;8239;48.594;8.598;2022-10-03T15:40:23;3.63;;;2.42;;
16262;SDS011;8239;48.594;8.598;2022-10-03T15:43:01;2.55;;;2.35;;
16262;SDS011;8239;48.594;8.598;2022-10-03T15:45:34;2.53;;;2.33;;
16262;SDS011;8239;48.594;8.598;2022-10-03T15:48:05;3.15;;;2.50;;
16262;SDS011;8239;48.594;8.598;2022-10-03T15:50:39;3.55;;;2.70;;
16262;SDS011;8239;48.594;8.598;2022-10-03T15:53:12;2.92;;;2.58;;
16262;SDS011;8239;48.594;8.598;2022-10-03T15:55:46;3.97;;;2.80;;
16262;SDS011;8239;48.594;8.598;2022-10-03T15:58:16;3.50;;;3.00;;
16262;SDS011;8239;48.594;8.598;2022-10-03T16:00:48;2.60;;;2.38;;
16262;SDS011;8239;48.594;8.598;2022-10-03T16:03:22;2.85;;;2.65;;
16262;SDS011;8239;48.594;8.598;2022-10-03T16:05:58;6.32;;;3.08;;
16262;SDS011;8239;48.594;8.598;2022-10-03T16:08:31;3.55;;;2.50;;
16262;SDS011;8239;48.594;8.598;2022-10-03T16:11:05;3.17;;;2.65;;
16262;SDS011;8239;48.594;8.598;2022-10-03T16:13:38;3.20;;;2.78;;
16262;SDS011;8239;48.594;8.598;2022-10-03T16:16:12;3.63;;;2.60;;
16262;SDS011;8239;48.594;8.598;2022-10-03T16:18:52;3.42;;;2.70;;
16262;SDS011;8239;48.594;8.598;2022-10-03T16:21:36;2.88;;;2.67;;
16262;SDS011;8239;48.594;8.598;2022-10-03T16:24:15;3.38;;;3.03;;
16262;SDS011;8239;48.594;8.598;2022-10-03T16:26:58;4.45;;;3.20;;
16262;SDS011;8239;48.594;8.598;2022-10-03T16:29:33;4.97;;;3.50;;
16262;SDS011;8239;48.594;8.598;2022-10-03T16:32:03;4.40;;;3.53;;
16262;SDS011;8239;48.594;8.598;2022-10-03T16:34:33;4.43;;;3.60;;
16262;SDS011;8239;48.594;8.598;2022-10-03T16:37:05;4.57;;;3.67;;
16262;SDS011;8239;48.594;8.598;2022-10-03T16:39:42;5.82;;;3.78;;
16262;SDS011;8239;48.594;8.598;2022-10-03T16:42:17;4.32;;;3.92;;
16262;SDS011;8239;48.594;8.598;2022-10-03T16:44:49;4.43;;;3.60;;
16262;SDS011;8239;48.594;8.598;2022-10-03T16:47:25;4.47;;;4.05;;
16262;SDS011;8239;48.594;8.598;2022-10-03T16:49:57;4.88;;;4.20;;
16262;SDS011;8239;48.594;8.598;2022-10-03T16:52:44;7.28;;;4.40;;
16262;SDS011;8239;48.594;8.598;2022-10-03T16:55:15;6.82;;;4.28;;
16262;SDS011;8239;48.594;8.598;2022-10-03T16:57:45;4.82;;;4.05;;
16262;SDS011;8239;48.594;8.598;2022-10-03T17:00:20;5.72;;;4.22;;
16262;SDS011;8239;48.594;8.598;2022-10-03T17:02:49;5.43;;;4.60;;
16262;SDS011;8239;48.594;8.598;2022-10-03T17:05:16;6.70;;;5.00;;
16262;SDS011;8239;48.594;8.598;2022-10-03T17:07:46;7.47;;;5.20;;
16262;SDS011;8239;48.594;8.598;2022-10-03T17:10:22;7.53;;;6.23;;
16262;SDS011;8239;48.594;8.598;2022-10-03T17:12:58;9.10;;;6.00;;
16262;SDS011;8239;48.594;8.598;2022-10-03T17:15:29;8.27;;;6.33;;
16262;SDS011;8239;48.594;8.598;2022-10-03T17:18:03;9.03;;;6.00;;
16262;SDS011;8239;48.594;8.598;2022-10-03T17:20:40;9.07;;;6.10;;
16262;SDS011;8239;48.594;8.598;2022-10-03T17:23:16;8.70;;;6.30;;
16262;SDS011;8239;48.594;8.598;2022-10-03T17:25:55;7.20;;;5.97;;
16262;SDS011;8239;48.594;8.598;2022-10-03T17:28:33;9.27;;;6.17;;
16262;SDS011;8239;48.594;8.598;2022-10-03T17:31:15;7.63;;;6.47;;
16262;SDS011;8239;48.594;8.598;2022-10-03T17:33:54;8.60;;;7.30;;
16262;SDS011;8239;48.594;8.598;2022-10-03T17:39:34;11.00;;;6.50;;
16262;SDS011;8239;48.594;8.598;2022-10-03T17:42:08;12.33;;;6.50;;
16262;SDS011;8239;48.594;8.598;2022-10-03T17:45:02;10.07;;;6.83;;
16262;SDS011;8239;48.594;8.598;2022-10-03T17:47:40;14.93;;;10.33;;
16262;SDS011;8239;48.594;8.598;2022-10-03T17:50:18;17.23;;;12.27;;
16262;SDS011;8239;48.594;8.598;2022-10-03T17:52:54;12.97;;;8.90;;
16262;SDS011;8239;48.594;8.598;2022-10-03T17:55:24;12.33;;;9.13;;
16262;SDS011;8239;48.594;8.598;2022-10-03T17:57:56;11.63;;;8.20;;
16262;SDS011;8239;48.594;8.598;2022-10-03T18:00:26;15.23;;;9.90;;
16262;SDS011;8239;48.594;8.598;2022-10-03T18:02:58;12.70;;;8.77;;
16262;SDS011;8239;48.594;8.598;2022-10-03T18:05:29;16.40;;;11.27;;
16262;SDS011;8239;48.594;8.598;2022-10-03T18:08:01;17.37;;;11.57;;
16262;SDS011;8239;48.594;8.598;2022-10-03T18:10:35;17.60;;;11.57;;
16262;SDS011;8239;48.594;8.598;2022-10-03T18:13:06;14.30;;;10.10;;
16262;SDS011;8239;48.594;8.598;2022-10-03T18:16:02;14.17;;;8.43;;
16262;SDS011;8239;48.594;8.598;2022-10-03T18:21:58;12.30;;;8.27;;
16262;SDS011;8239;48.594;8.598;2022-10-03T18:30:39;16.07;;;8.83;;
16262;SDS011;8239;48.594;8.598;2022-10-03T18:33:12;15.47;;;8.60;;
16262;SDS011;8239;48.594;8.598;2022-10-03T18:35:42;15.77;;;9.03;;
16262;SDS011;8239;48.594;8.598;2022-10-03T18:38:11;17.13;;;10.07;;
16262;SDS011;8239;48.594;8.598;2022-10-03T18:40:44;21.10;;;10.33;;
16262;SDS011;8239;48.594;8.598;2022-10-03T18:43:25;17.63;;;11.30;;
16262;SDS011;8239;48.594;8.598;2022-10-03T18:45:59;19.07;;;11.87;;
16262;SDS011;8239;48.594;8.598;2022-10-03T18:48:54;21.73;;;11.93;;
16262;SDS011;8239;48.594;8.598;2022-10-03T18:51:26;17.80;;;10.87;;
16262;SDS011;8239;48.594;8.598;2022-10-03T18:54:00;19.70;;;10.97;;
16262;SDS011;8239;48.594;8.598;2022-10-03T18:56:30;18.23;;;9.90;;
16262;SDS011;8239;48.594;8.598;2022-10-03T18:59:07;17.17;;;9.47;;
16262;SDS011;8239;48.594;8.598;2022-10-03T19:01:48;15.30;;;9.20;;
16262;SDS011;8239;48.594;8.598;2022-10-03T19:04:21;17.90;;;9.50;;
16262;SDS011;8239;48.594;8.598;2022-10-03T19:06:59;19.77;;;9.27;;
16262;SDS011;8239;48.594;8.598;2022-10-03T19:09:29;14.73;;;9.40;;
16262;SDS011;8239;48.594;8.598;2022-10-03T19:12:04;19.40;;;10.23;;
16262;SDS011;8239;48.594;8.598;2022-10-03T19:14:39;18.40;;;11.07;;
16262;SDS011;8239;48.594;8.598;2022-10-03T19:17:21;18.60;;;9.87;;
16262;SDS011;8239;48.594;8.598;2022-10-03T19:19:57;18.67;;;11.03;;
16262;SDS011;8239;48.594;8.598;2022-10-03T19:22:27;20.70;;;10.87;;
16262;SDS011;8239;48.594;8.598;2022-10-03T19:24:57;17.67;;;10.17;;
16262;SDS011;8239;48.594;8.598;2022-10-03T19:30:18;18.63;;;10.83;;
16262;SDS011;8239;48.594;8.598;2022-10-03T19:32:49;22.57;;;10.87;;
16262;SDS011;8239;48.594;8.598;2022-10-03T19:35:20;20.77;;;12.90;;
16262;SDS011;8239;48.594;8.598;2022-10-03T19:37:51;19.90;;;10.73;;
16262;SDS011;8239;48.594;8.598;2022-10-03T19:40:29;20.87;;;10.33;;
16262;SDS011;8239;48.594;8.598;2022-10-03T19:43:22;18.50;;;11.30;;
16262;SDS011;8239;48.594;8.598;2022-10-03T19:46:05;20.50;;;11.37;;
16262;SDS011;8239;48.594;8.598;2022-10-03T19:48:38;20.40;;;11.87;;
16262;SDS011;8239;48.594;8.598;2022-10-03T19:51:12;18.53;;;10.07;;
16262;SDS011;8239;48.594;8.598;2022-10-03T19:53:41;19.40;;;10.23;;
16262;SDS011;8239;48.594;8.598;2022-10-03T19:56:12;18.57;;;10.27;;
16262;SDS011;8239;48.594;8.598;2022-10-03T19:58:42;17.43;;;9.83;;
16262;SDS011;8239;48.594;8.598;2022-10-03T20:01:12;19.10;;;9.90;;
16262;SDS011;8239;48.594;8.598;2022-10-03T20:03:42;18.70;;;10.73;;
16262;SDS011;8239;48.594;8.598;2022-10-03T20:06:17;17.30;;;10.37;;
16262;SDS011;8239;48.594;8.598;2022-10-03T20:08:48;20.37;;;11.63;;
16262;SDS011;8239;48.594;8.598;2022-10-03T20:11:27;17.00;;;10.10;;